sensor_id;sensor_type;location;lat;lon;timestamp;temperature;humidity
6174;DHT22;3120;48.796;9.796;2023-09-08T03:21:03;13.40;99.90
6174;DHT22;3120;48.796;9.796;2023-09-08T03:23:41;13.60;99.90
6174;DHT22;3120;48.796;9.796;2023-09-08T03:26:07;13.40;99.90
6174;DHT22;3120;48.796;9.796;2023-09-08T03:28:33;13.20;99.90
6174;DHT22;3120;48.796;9.796;2023-09-08T03:30:58;13.10;99.90
6174;DHT22;3120;48.796;9.796;2023-09-08T03:33:24;13.10;99.90
6174;DHT22;3120;48.796;9.796;2023-09-08T03:35:49;13.00;99.90
6174;DHT22;3120;48.796;9.796;2023-09-08T03:38:15;13.00;99.90
6174;DHT22;3120;48.796;9.796;2023-09-08T03:40:40;12.90;99.90
6174;DHT22;3120;48.796;9.796;2023-09-08T03:43:06;13.00;99.90
6174;DHT22;3120;48.796;9.796;2023-09-08T03:45:31;13.50;99.90
6174;DHT22;3120;48.796;9.796;2023-09-08T03:47:57;12.90;99.90
6174;DHT22;3120;48.796;9.796;2023-09-08T03:50:22;12.70;99.90
6174;DHT22;3120;48.796;9.796;2023-09-08T03:52:48;12.90;99.90
6174;DHT22;3120;48.796;9.796;2023-09-08T03:55:13;12.80;99.90
6174;DHT22;3120;48.796;9.796;2023-09-08T03:57:39;13.00;99.90
6174;DHT22;3120;48.796;9.796;2023-09-08T04:00:04;12.80;99.90
6174;DHT22;3120;48.796;9.796;2023-09-08T04:02:31;12.90;99.90
6174;DHT22;3120;48.796;9.796;2023-09-08T04:04:57;13.50;99.90
6174;DHT22;3120;48.796;9.796;2023-09-08T04:07:23;13.40;99.90
6174;DHT22;3120;48.796;9.796;2023-09-08T04:09:48;12.70;99.90
6174;DHT22;3120;48.796;9.796;2023-09-08T04:12:13;12.70;99.90
6174;DHT22;3120;48.796;9.796;2023-09-08T04:14:39;12.70;99.90
6174;DHT22;3120;48.796;9.796;2023-09-08T04:17:04;12.80;99.90
6174;DHT22;3120;48.796;9.796;2023-09-08T04:19:30;12.60;99.90
6174;DHT22;3120;48.796;9.796;2023-09-08T04:21:55;12.60;99.90
6174;DHT22;3120;48.796;9.796;2023-09-08T04:24:21;12.50;99.90
6174;DHT22;3120;48.796;9.796;2023-09-08T04:26:46;12.60;99.90
6174;DHT22;3120;48.796;9.796;2023-09-08T04:29:11;13.00;99.90
6174;DHT22;3120;48.796;9.796;2023-09-08T04:31:37;12.60;99.90
6174;DHT22;3120;48.796;9.796;2023-09-08T04:34:02;12.70;99.90
6174;DHT22;3120;48.796;9.796;2023-09-08T04:36:28;13.00;99.90
6174;DHT22;3120;48.796;9.796;2023-09-08T04:38:55;12.50;99.90
6174;DHT22;3120;48.796;9.796;2023-09-08T04:41:21;12.40;99.90
6174;DHT22;3120;48.796;9.796;2023-09-08T04:43:46;12.50;99.90
6174;DHT22;3120;48.796;9.796;2023-09-08T04:46:12;12.50;99.90
6174;DHT22;3120;48.796;9.796;2023-09-08T04:48:37;13.20;99.90
6174;DHT22;3120;48.796;9.796;2023-09-08T04:51:03;12.50;99.90
6174;DHT22;3120;48.796;9.796;2023-09-08T04:53:28;12.60;99.90
6174;DHT22;3120;48.796;9.796;2023-09-08T04:55:54;12.60;99.90
6174;DHT22;3120;48.796;9.796;2023-09-08T04:58:19;12.50;99.90
6174;DHT22;3120;48.796;9.796;2023-09-08T05:00:44;12.90;99.90
6174;DHT22;3120;48.796;9.796;2023-09-08T05:03:10;12.40;99.90
6174;DHT22;3120;48.796;9.796;2023-09-08T05:05:35;12.40;99.90
6174;DHT22;3120;48.796;9.796;2023-09-08T05:08:01;12.40;99.90
6174;DHT22;3120;48.796;9.796;2023-09-08T05:10:26;12.50;99.90
6174;DHT22;3120;48.796;9.796;2023-09-08T05:12:52;12.50;99.90
6174;DHT22;3120;48.796;9.796;2023-09-08T05:15:17;13.00;99.90
6174;DHT22;3120;48.796;9.796;2023-09-08T05:17:46;12.50;99.90
6174;DHT22;3120;48.796;9.796;2023-09-08T05:20:11;12.60;99.90
6174;DHT22;3120;48.796;9.796;2023-09-08T05:22:37;12.70;99.90
6174;DHT22;3120;48.796;9.796;2023-09-08T05:25:03;12.70;99.90
6174;DHT22;3120;48.796;9.796;2023-09-08T07:21:17;18.00;99.90
6174;DHT22;3120;48.796;9.796;2023-09-08T07:23:42;18.20;99.90
6174;DHT22;3120;48.796;9.796;2023-09-08T07:26:08;18.30;99.90
6174;DHT22;3120;48.796;9.796;2023-09-08T07:28:33;18.60;99.90
6174;DHT22;3120;48.796;9.796;2023-09-08T07:31:05;18.80;99.90
6174;DHT22;3120;48.796;9.796;2023-09-08T07:33:31;18.80;99.90
6174;DHT22;3120;48.796;9.796;2023-09-08T07:35:57;18.90;99.90
6174;DHT22;3120;48.796;9.796;2023-09-08T07:38:22;19.30;99.90
6174;DHT22;3120;48.796;9.796;2023-09-08T07:40:48;19.30;99.90
6174;DHT22;3120;48.796;9.796;2023-09-08T07:43:13;19.60;99.90
6174;DHT22;3120;48.796;9.796;2023-09-08T07:45:39;19.70;99.90
6174;DHT22;3120;48.796;9.796;2023-09-08T07:48:06;19.80;99.90
6174;DHT22;3120;48.796;9.796;2023-09-08T07:50:31;20.00;99.90
6174;DHT22;3120;48.796;9.796;2023-09-08T07:52:57;20.00;99.90
6174;DHT22;3120;48.796;9.796;2023-09-08T07:55:22;20.30;99.90
6174;DHT22;3120;48.796;9.796;2023-09-08T07:57:48;20.40;99.90
6174;DHT22;3120;48.796;9.796;2023-09-08T08:00:14;20.70;99.90
6174;DHT22;3120;48.796;9.796;2023-09-08T08:02:41;20.80;99.90
6174;DHT22;3120;48.796;9.796;2023-09-08T08:05:07;20.90;99.90
6174;DHT22;3120;48.796;9.796;2023-09-08T08:07:32;21.00;99.90
6174;DHT22;3120;48.796;9.796;2023-09-08T08:09:58;21.10;99.90
6174;DHT22;3120;48.796;9.796;2023-09-08T08:12:23;21.30;99.90
6174;DHT22;3120;48.796;9.796;2023-09-08T08:14:49;21.50;99.90
6174;DHT22;3120;48.796;9.796;2023-09-08T08:17:14;21.60;99.90
6174;DHT22;3120;48.796;9.796;2023-09-08T08:19:42;21.70;99.90
6174;DHT22;3120;48.796;9.796;2023-09-08T08:22:08;21.70;99.90
6174;DHT22;3120;48.796;9.796;2023-09-08T08:24:33;21.80;99.90
6174;DHT22;3120;48.796;9.796;2023-09-08T08:26:59;22.00;99.90
6174;DHT22;3120;48.796;9.796;2023-09-08T08:29:27;22.20;99.90
6174;DHT22;3120;48.796;9.796;2023-09-08T08:31:52;22.10;99.90
6174;DHT22;3120;48.796;9.796;2023-09-08T08:34:17;22.10;99.90
6174;DHT22;3120;48.796;9.796;2023-09-08T08:36:43;22.20;99.90
6174;DHT22;3120;48.796;9.796;2023-09-08T08:39:08;22.30;99.90
6174;DHT22;3120;48.796;9.796;2023-09-08T08:41:34;22.50;99.90
6174;DHT22;3120;48.796;9.796;2023-09-08T08:44:03;22.60;99.90
6174;DHT22;3120;48.796;9.796;2023-09-08T08:46:29;22.50;99.90
6174;DHT22;3120;48.796;9.796;2023-09-08T08:48:54;22.90;99.90
6174;DHT22;3120;48.796;9.796;2023-09-08T08:51:20;23.00;99.90
6174;DHT22;3120;48.796;9.796;2023-09-08T08:53:48;23.10;99.90
6174;DHT22;3120;48.796;9.796;2023-09-08T08:56:13;23.30;99.70
6174;DHT22;3120;48.796;9.796;2023-09-08T08:58:39;23.80;99.90
6174;DHT22;3120;48.796;9.796;2023-09-08T09:01:04;23.40;99.90
6174;DHT22;3120;48.796;9.796;2023-09-08T09:03:31;23.70;99.90
6174;DHT22;3120;48.796;9.796;2023-09-08T09:05:58;23.50;99.90
6174;DHT22;3120;48.796;9.796;2023-09-08T09:08:24;23.50;98.90
6174;DHT22;3120;48.796;9.796;2023-09-08T09:10:50;23.80;99.90
6174;DHT22;3120;48.796;9.796;2023-09-08T09:13:16;23.60;99.90
6174;DHT22;3120;48.796;9.796;2023-09-08T09:15:42;23.60;99.50
6174;DHT22;3120;48.796;9.796;2023-09-08T09:18:08;24.30;99.90
6174;DHT22;3120;48.796;9.796;2023-09-08T09:20:33;23.80;99.80
6174;DHT22;3120;48.796;9.796;2023-09-08T09:22:59;23.90;99.90
6174;DHT22;3120;48.796;9.796;2023-09-08T09:25:28;24.10;98.80
6174;DHT22;3120;48.796;9.796;2023-09-08T09:27:54;24.80;97.90
6174;DHT22;3120;48.796;9.796;2023-09-08T09:30:20;25.50;97.00
6174;DHT22;3120;48.796;9.796;2023-09-08T09:32:46;26.30;95.70
6174;DHT22;3120;48.796;9.796;2023-09-08T09:35:15;27.50;94.40
6174;DHT22;3120;48.796;9.796;2023-09-08T09:37:40;28.40;94.00
6174;DHT22;3120;48.796;9.796;2023-09-08T09:40:06;29.10;92.70
6174;DHT22;3120;48.796;9.796;2023-09-08T09:42:32;29.40;91.80
6174;DHT22;3120;48.796;9.796;2023-09-08T09:45:00;30.20;91.70
6174;DHT22;3120;48.796;9.796;2023-09-08T09:47:25;30.80;90.30
6174;DHT22;3120;48.796;9.796;2023-09-08T09:49:51;31.70;88.50
6174;DHT22;3120;48.796;9.796;2023-09-08T09:52:21;32.10;89.40
6174;DHT22;3120;48.796;9.796;2023-09-08T09:54:47;32.30;89.00
6174;DHT22;3120;48.796;9.796;2023-09-08T09:57:16;32.70;85.60
6174;DHT22;3120;48.796;9.796;2023-09-08T09:59:42;33.70;82.40
6174;DHT22;3120;48.796;9.796;2023-09-08T10:02:08;34.70;79.60
6174;DHT22;3120;48.796;9.796;2023-09-08T10:04:36;35.20;79.40
6174;DHT22;3120;48.796;9.796;2023-09-08T10:07:02;34.70;79.70
6174;DHT22;3120;48.796;9.796;2023-09-08T10:09:28;35.70;78.10
6174;DHT22;3120;48.796;9.796;2023-09-08T10:11:54;35.60;77.30
6174;DHT22;3120;48.796;9.796;2023-09-08T10:14:19;35.00;77.30
6174;DHT22;3120;48.796;9.796;2023-09-08T10:16:46;34.20;78.60
6174;DHT22;3120;48.796;9.796;2023-09-08T10:19:14;34.30;77.70
6174;DHT22;3120;48.796;9.796;2023-09-08T10:21:42;34.60;78.40
6174;DHT22;3120;48.796;9.796;2023-09-08T10:27:12;33.80;77.40
6174;DHT22;3120;48.796;9.796;2023-09-08T10:29:37;33.10;79.00
6174;DHT22;3120;48.796;9.796;2023-09-08T10:32:04;33.00;82.20
6174;DHT22;3120;48.796;9.796;2023-09-08T10:34:31;33.40;78.70
6174;DHT22;3120;48.796;9.796;2023-09-08T10:36:57;34.50;77.90
6174;DHT22;3120;48.796;9.796;2023-09-08T10:39:33;35.40;75.50
6174;DHT22;3120;48.796;9.796;2023-09-08T10:44:43;34.80;75.70
6174;DHT22;3120;48.796;9.796;2023-09-08T10:47:08;35.10;75.20
6174;DHT22;3120;48.796;9.796;2023-09-08T10:49:35;34.90;76.60
6174;DHT22;3120;48.796;9.796;2023-09-08T10:52:10;35.10;76.30
6174;DHT22;3120;48.796;9.796;2023-09-08T10:54:42;35.60;78.10
6174;DHT22;3120;48.796;9.796;2023-09-08T10:57:15;35.50;77.00
6174;DHT22;3120;48.796;9.796;2023-09-08T11:00:00;34.90;77.70
6174;DHT22;3120;48.796;9.796;2023-09-08T11:05:06;34.80;76.40
6174;DHT22;3120;48.796;9.796;2023-09-08T11:07:32;35.70;75.60
6174;DHT22;3120;48.796;9.796;2023-09-08T11:12:30;35.50;75.50
6174;DHT22;3120;48.796;9.796;2023-09-08T11:14:57;35.90;76.60
6174;DHT22;3120;48.796;9.796;2023-09-08T11:17:26;35.10;77.10
6174;DHT22;3120;48.796;9.796;2023-09-08T11:19:53;35.30;77.10
6174;DHT22;3120;48.796;9.796;2023-09-08T11:22:21;35.60;78.70
6174;DHT22;3120;48.796;9.796;2023-09-08T11:24:47;35.90;73.30
6174;DHT22;3120;48.796;9.796;2023-09-08T11:27:13;35.90;76.10
6174;DHT22;3120;48.796;9.796;2023-09-08T11:29:39;35.80;77.20
6174;DHT22;3120;48.796;9.796;2023-09-08T11:32:07;35.30;75.30
6174;DHT22;3120;48.796;9.796;2023-09-08T11:34:34;35.70;75.30
6174;DHT22;3120;48.796;9.796;2023-09-08T11:36:59;35.60;78.90
6174;DHT22;3120;48.796;9.796;2023-09-08T11:39:25;35.50;77.90
6174;DHT22;3120;48.796;9.796;2023-09-08T11:41:51;35.50;79.10
6174;DHT22;3120;48.796;9.796;2023-09-08T11:44:17;36.00;76.90
6174;DHT22;3120;48.796;9.796;2023-09-08T11:46:43;36.70;75.70
6174;DHT22;3120;48.796;9.796;2023-09-08T11:49:08;37.10;74.70
6174;DHT22;3120;48.796;9.796;2023-09-08T11:51:34;36.20;76.10
6174;DHT22;3120;48.796;9.796;2023-09-08T11:53:59;36.30;77.40
6174;DHT22;3120;48.796;9.796;2023-09-08T11:56:25;36.20;76.90
6174;DHT22;3120;48.796;9.796;2023-09-08T11:58:51;36.10;78.00
6174;DHT22;3120;48.796;9.796;2023-09-08T12:01:17;36.30;76.60
6174;DHT22;3120;48.796;9.796;2023-09-08T12:03:52;37.10;75.30
6174;DHT22;3120;48.796;9.796;2023-09-08T12:06:18;37.70;74.50
6174;DHT22;3120;48.796;9.796;2023-09-08T12:08:44;38.90;71.80
6174;DHT22;3120;48.796;9.796;2023-09-08T12:11:10;40.60;69.90
6174;DHT22;3120;48.796;9.796;2023-09-08T12:13:36;39.20;75.30
6174;DHT22;3120;48.796;9.796;2023-09-08T12:16:01;37.90;75.70
6174;DHT22;3120;48.796;9.796;2023-09-08T12:18:37;38.40;73.80
6174;DHT22;3120;48.796;9.796;2023-09-08T12:21:03;39.70;70.30
6174;DHT22;3120;48.796;9.796;2023-09-08T12:23:30;40.00;72.50
6174;DHT22;3120;48.796;9.796;2023-09-08T12:25:56;39.10;74.40
6174;DHT22;3120;48.796;9.796;2023-09-08T12:28:22;37.90;75.40
6174;DHT22;3120;48.796;9.796;2023-09-08T12:30:50;37.70;75.30
6174;DHT22;3120;48.796;9.796;2023-09-08T12:33:16;37.80;74.50
6174;DHT22;3120;48.796;9.796;2023-09-08T12:35:45;39.00;73.70
6174;DHT22;3120;48.796;9.796;2023-09-08T12:38:11;40.50;69.20
6174;DHT22;3120;48.796;9.796;2023-09-08T12:40:37;40.70;69.20
6174;DHT22;3120;48.796;9.796;2023-09-08T12:43:03;40.80;68.00
6174;DHT22;3120;48.796;9.796;2023-09-08T12:45:28;39.60;69.80
6174;DHT22;3120;48.796;9.796;2023-09-08T12:47:54;40.10;70.00
6174;DHT22;3120;48.796;9.796;2023-09-08T12:50:24;39.60;72.60
6174;DHT22;3120;48.796;9.796;2023-09-08T12:52:49;39.00;74.20
6174;DHT22;3120;48.796;9.796;2023-09-08T12:55:15;40.30;71.30
6174;DHT22;3120;48.796;9.796;2023-09-08T12:57:40;40.90;68.30
6174;DHT22;3120;48.796;9.796;2023-09-08T13:00:06;41.20;69.00
6174;DHT22;3120;48.796;9.796;2023-09-08T13:02:32;40.50;70.40
6174;DHT22;3120;48.796;9.796;2023-09-08T13:04:58;41.20;68.40
6174;DHT22;3120;48.796;9.796;2023-09-08T13:07:23;40.90;67.80
6174;DHT22;3120;48.796;9.796;2023-09-08T13:09:49;40.30;70.30
6174;DHT22;3120;48.796;9.796;2023-09-08T13:12:15;38.60;73.50
6174;DHT22;3120;48.796;9.796;2023-09-08T13:14:41;39.20;70.60
6174;DHT22;3120;48.796;9.796;2023-09-08T13:17:08;39.00;71.90
6174;DHT22;3120;48.796;9.796;2023-09-08T13:19:34;38.10;76.70
6174;DHT22;3120;48.796;9.796;2023-09-08T13:21:59;37.90;73.40
6174;DHT22;3120;48.796;9.796;2023-09-08T13:24:25;38.20;72.50
6174;DHT22;3120;48.796;9.796;2023-09-08T13:26:50;39.60;70.70
6174;DHT22;3120;48.796;9.796;2023-09-08T13:29:16;39.20;71.40
6174;DHT22;3120;48.796;9.796;2023-09-08T13:31:42;38.00;72.20
6174;DHT22;3120;48.796;9.796;2023-09-08T13:34:07;38.00;73.40
6174;DHT22;3120;48.796;9.796;2023-09-08T13:36:33;38.40;75.90
6174;DHT22;3120;48.796;9.796;2023-09-08T13:38:58;39.10;72.20
6174;DHT22;3120;48.796;9.796;2023-09-08T13:41:24;40.60;70.50
6174;DHT22;3120;48.796;9.796;2023-09-08T13:43:49;40.00;73.90
6174;DHT22;3120;48.796;9.796;2023-09-08T13:46:15;39.10;73.00
6174;DHT22;3120;48.796;9.796;2023-09-08T13:48:40;39.40;72.20
6174;DHT22;3120;48.796;9.796;2023-09-08T13:51:06;39.50;71.10
6174;DHT22;3120;48.796;9.796;2023-09-08T13:53:31;40.90;69.60
6174;DHT22;3120;48.796;9.796;2023-09-08T13:55:57;41.00;69.90
6174;DHT22;3120;48.796;9.796;2023-09-08T13:58:22;41.30;69.90
6174;DHT22;3120;48.796;9.796;2023-09-08T14:00:48;40.40;68.80
6174;DHT22;3120;48.796;9.796;2023-09-08T14:03:17;40.70;68.90
6174;DHT22;3120;48.796;9.796;2023-09-08T14:05:42;41.40;67.10
6174;DHT22;3120;48.796;9.796;2023-09-08T14:08:08;41.80;66.20
6174;DHT22;3120;48.796;9.796;2023-09-08T14:10:33;40.30;71.20
6174;DHT22;3120;48.796;9.796;2023-09-08T14:12:59;39.30;72.20
6174;DHT22;3120;48.796;9.796;2023-09-08T14:15:25;39.50;71.80
6174;DHT22;3120;48.796;9.796;2023-09-08T14:17:50;38.90;74.60
6174;DHT22;3120;48.796;9.796;2023-09-08T14:20:16;40.00;70.20
6174;DHT22;3120;48.796;9.796;2023-09-08T14:22:41;38.80;73.30
6174;DHT22;3120;48.796;9.796;2023-09-08T14:25:07;37.90;77.30
6174;DHT22;3120;48.796;9.796;2023-09-08T14:27:33;37.60;76.00
6174;DHT22;3120;48.796;9.796;2023-09-08T14:29:59;37.50;79.50
6174;DHT22;3120;48.796;9.796;2023-09-08T14:32:24;38.00;77.40
6174;DHT22;3120;48.796;9.796;2023-09-08T14:34:50;38.00;77.60
6174;DHT22;3120;48.796;9.796;2023-09-08T14:37:16;38.30;76.80
6174;DHT22;3120;48.796;9.796;2023-09-08T14:39:41;37.80;76.30
6174;DHT22;3120;48.796;9.796;2023-09-08T14:42:07;37.90;77.10
6174;DHT22;3120;48.796;9.796;2023-09-08T14:44:33;37.70;77.10
6174;DHT22;3120;48.796;9.796;2023-09-08T14:46:59;37.70;75.20
6174;DHT22;3120;48.796;9.796;2023-09-08T14:49:24;37.80;76.30
6174;DHT22;3120;48.796;9.796;2023-09-08T14:51:50;38.80;73.30
6174;DHT22;3120;48.796;9.796;2023-09-08T14:54:15;38.10;74.60
6174;DHT22;3120;48.796;9.796;2023-09-08T14:56:41;37.90;76.00
6174;DHT22;3120;48.796;9.796;2023-09-08T14:59:07;37.80;75.30
6174;DHT22;3120;48.796;9.796;2023-09-08T15:01:33;38.00;77.10
6174;DHT22;3120;48.796;9.796;2023-09-08T15:03:58;38.10;74.50
6174;DHT22;3120;48.796;9.796;2023-09-08T15:06:24;37.90;75.30
6174;DHT22;3120;48.796;9.796;2023-09-08T15:08:49;37.30;76.90
6174;DHT22;3120;48.796;9.796;2023-09-08T15:11:15;37.20;77.70
6174;DHT22;3120;48.796;9.796;2023-09-08T15:13:40;37.30;76.70
6174;DHT22;3120;48.796;9.796;2023-09-08T15:16:06;37.40;77.50
6174;DHT22;3120;48.796;9.796;2023-09-08T15:18:32;37.50;75.20
6174;DHT22;3120;48.796;9.796;2023-09-08T15:20:57;37.50;74.90
6174;DHT22;3120;48.796;9.796;2023-09-08T15:23:23;37.20;77.20
6174;DHT22;3120;48.796;9.796;2023-09-08T15:25:52;37.20;76.00
6174;DHT22;3120;48.796;9.796;2023-09-08T15:28:18;37.00;76.30
6174;DHT22;3120;48.796;9.796;2023-09-08T15:30:50;37.10;77.70
6174;DHT22;3120;48.796;9.796;2023-09-08T15:33:15;37.10;75.20
6174;DHT22;3120;48.796;9.796;2023-09-08T15:35:41;37.40;76.10
6174;DHT22;3120;48.796;9.796;2023-09-08T15:38:07;36.90;75.70
6174;DHT22;3120;48.796;9.796;2023-09-08T15:40:33;36.30;79.00
6174;DHT22;3120;48.796;9.796;2023-09-08T15:42:58;36.20;77.50
6174;DHT22;3120;48.796;9.796;2023-09-08T15:45:24;36.20;77.50
6174;DHT22;3120;48.796;9.796;2023-09-08T15:47:49;36.40;77.50
6174;DHT22;3120;48.796;9.796;2023-09-08T15:50:15;36.50;77.20
6174;DHT22;3120;48.796;9.796;2023-09-08T15:52:40;36.80;77.70
6174;DHT22;3120;48.796;9.796;2023-09-08T15:55:06;36.90;76.70
6174;DHT22;3120;48.796;9.796;2023-09-08T15:57:32;37.10;75.10
6174;DHT22;3120;48.796;9.796;2023-09-08T15:59:57;37.10;76.30
6174;DHT22;3120;48.796;9.796;2023-09-08T16:02:23;36.60;76.80
6174;DHT22;3120;48.796;9.796;2023-09-08T16:48:50;29.90;91.50
6174;DHT22;3120;48.796;9.796;2023-09-08T16:51:15;29.80;92.10
6174;DHT22;3120;48.796;9.796;2023-09-08T16:53:41;29.90;92.40
6174;DHT22;3120;48.796;9.796;2023-09-08T16:56:06;29.70;92.30
6174;DHT22;3120;48.796;9.796;2023-09-08T16:58:34;29.40;91.60
6174;DHT22;3120;48.796;9.796;2023-09-08T17:01:00;29.70;92.60
6174;DHT22;3120;48.796;9.796;2023-09-08T17:03:25;29.40;93.20
6174;DHT22;3120;48.796;9.796;2023-09-08T17:05:51;30.10;93.80
6174;DHT22;3120;48.796;9.796;2023-09-08T17:08:16;29.40;93.70
6174;DHT22;3120;48.796;9.796;2023-09-08T17:10:42;28.50;93.50
6174;DHT22;3120;48.796;9.796;2023-09-08T17:13:08;29.30;94.80
6174;DHT22;3120;48.796;9.796;2023-09-08T17:15:33;28.50;94.70
6174;DHT22;3120;48.796;9.796;2023-09-08T17:17:58;29.00;94.60
6174;DHT22;3120;48.796;9.796;2023-09-08T17:20:24;28.40;94.20
6174;DHT22;3120;48.796;9.796;2023-09-08T17:22:51;29.00;95.00
6174;DHT22;3120;48.796;9.796;2023-09-08T17:25:16;28.10;94.40
6174;DHT22;3120;48.796;9.796;2023-09-08T17:27:42;28.50;94.50
6174;DHT22;3120;48.796;9.796;2023-09-08T17:30:08;27.90;94.00
6174;DHT22;3120;48.796;9.796;2023-09-08T17:32:33;27.60;94.80
6174;DHT22;3120;48.796;9.796;2023-09-08T17:34:59;28.20;95.20
6174;DHT22;3120;48.796;9.796;2023-09-08T17:37:26;27.40;95.10
6174;DHT22;3120;48.796;9.796;2023-09-08T17:39:51;27.60;95.50
6174;DHT22;3120;48.796;9.796;2023-09-08T17:42:17;26.90;95.70
6174;DHT22;3120;48.796;9.796;2023-09-08T17:44:43;26.80;95.70
6174;DHT22;3120;48.796;9.796;2023-09-08T17:47:08;26.70;96.10
6174;DHT22;3120;48.796;9.796;2023-09-08T17:49:34;27.50;96.50
6174;DHT22;3120;48.796;9.796;2023-09-08T17:52:02;27.30;96.40
6174;DHT22;3120;48.796;9.796;2023-09-08T17:54:28;26.20;96.20
6174;DHT22;3120;48.796;9.796;2023-09-08T17:56:54;26.10;96.60
6174;DHT22;3120;48.796;9.796;2023-09-08T17:59:20;25.80;97.00
6174;DHT22;3120;48.796;9.796;2023-09-08T18:01:49;25.60;97.30
6174;DHT22;3120;48.796;9.796;2023-09-08T18:04:14;25.70;97.50
6174;DHT22;3120;48.796;9.796;2023-09-08T18:06:40;25.50;97.40
6174;DHT22;3120;48.796;9.796;2023-09-08T18:09:05;25.40;98.00
6174;DHT22;3120;48.796;9.796;2023-09-08T18:11:31;25.50;97.70
6174;DHT22;3120;48.796;9.796;2023-09-08T18:13:58;26.80;98.60
6174;DHT22;3120;48.796;9.796;2023-09-08T18:16:24;25.80;98.80
6174;DHT22;3120;48.796;9.796;2023-09-08T18:18:49;24.90;99.30
6174;DHT22;3120;48.796;9.796;2023-09-08T18:21:15;25.80;99.70
6174;DHT22;3120;48.796;9.796;2023-09-08T18:23:40;24.80;99.70
6174;DHT22;3120;48.796;9.796;2023-09-08T18:26:06;25.60;99.90
6174;DHT22;3120;48.796;9.796;2023-09-08T18:28:32;24.40;99.90
6174;DHT22;3120;48.796;9.796;2023-09-08T18:30:57;24.20;99.90
6174;DHT22;3120;48.796;9.796;2023-09-08T18:33:23;25.30;99.90
6174;DHT22;3120;48.796;9.796;2023-09-08T18:35:49;24.50;99.90
6174;DHT22;3120;48.796;9.796;2023-09-08T18:38:14;23.90;99.90
6174;DHT22;3120;48.796;9.796;2023-09-08T18:40:44;23.70;99.90
6174;DHT22;3120;48.796;9.796;2023-09-08T18:43:10;23.70;99.90
6174;DHT22;3120;48.796;9.796;2023-09-08T18:45:36;23.60;99.90
6174;DHT22;3120;48.796;9.796;2023-09-08T18:48:01;23.90;99.90
6174;DHT22;3120;48.796;9.796;2023-09-08T18:50:26;23.50;99.90
6174;DHT22;3120;48.796;9.796;2023-09-08T18:52:52;24.20;99.90
6174;DHT22;3120;48.796;9.796;2023-09-08T18:55:20;23.60;99.90
6174;DHT22;3120;48.796;9.796;2023-09-08T18:57:46;23.00;99.90
6174;DHT22;3120;48.796;9.796;2023-09-08T19:00:11;23.30;99.90
6174;DHT22;3120;48.796;9.796;2023-09-08T19:02:37;22.80;99.90
6174;DHT22;3120;48.796;9.796;2023-09-08T19:05:02;23.00;99.90
6174;DHT22;3120;48.796;9.796;2023-09-08T19:07:29;22.80;99.90
6174;DHT22;3120;48.796;9.796;2023-09-08T19:09:54;22.60;99.90
6174;DHT22;3120;48.796;9.796;2023-09-08T19:12:20;23.80;99.90
6174;DHT22;3120;48.796;9.796;2023-09-08T19:14:45;22.60;99.90
6174;DHT22;3120;48.796;9.796;2023-09-08T19:17:11;23.80;99.90
6174;DHT22;3120;48.796;9.796;2023-09-08T19:19:37;22.90;99.90
6174;DHT22;3120;48.796;9.796;2023-09-08T19:22:02;22.80;99.90
6174;DHT22;3120;48.796;9.796;2023-09-08T19:24:28;22.30;99.90
6174;DHT22;3120;48.796;9.796;2023-09-08T19:26:55;23.10;99.90
6174;DHT22;3120;48.796;9.796;2023-09-08T19:29:21;22.80;99.90
6174;DHT22;3120;48.796;9.796;2023-09-08T19:31:46;22.00;99.90
6174;DHT22;3120;48.796;9.796;2023-09-08T19:34:12;23.60;99.90
6174;DHT22;3120;48.796;9.796;2023-09-08T19:36:37;22.70;99.90
6174;DHT22;3120;48.796;9.796;2023-09-08T19:39:03;23.10;99.90
6174;DHT22;3120;48.796;9.796;2023-09-08T19:41:29;21.90;99.90
6174;DHT22;3120;48.796;9.796;2023-09-08T19:43:54;21.70;99.90
6174;DHT22;3120;48.796;9.796;2023-09-08T19:46:20;22.20;99.90
6174;DHT22;3120;48.796;9.796;2023-09-08T19:48:45;22.70;99.90
6174;DHT22;3120;48.796;9.796;2023-09-08T19:51:11;21.60;99.90
6174;DHT22;3120;48.796;9.796;2023-09-08T19:53:36;21.70;99.90
6174;DHT22;3120;48.796;9.796;2023-09-08T19:56:02;21.40;99.90
6174;DHT22;3120;48.796;9.796;2023-09-08T19:58:27;21.70;99.90
6174;DHT22;3120;48.796;9.796;2023-09-08T20:00:53;22.00;99.90
6174;DHT22;3120;48.796;9.796;2023-09-08T20:03:19;21.40;99.90
6174;DHT22;3120;48.796;9.796;2023-09-08T20:05:44;21.60;99.90
6174;DHT22;3120;48.796;9.796;2023-09-08T20:08:10;21.90;99.90
6174;DHT22;3120;48.796;9.796;2023-09-08T20:10:39;21.90;99.90
6174;DHT22;3120;48.796;9.796;2023-09-08T20:13:05;21.70;99.90
6174;DHT22;3120;48.796;9.796;2023-09-08T20:15:32;21.90;99.90
6174;DHT22;3120;48.796;9.796;2023-09-08T20:17:58;20.90;99.90
6174;DHT22;3120;48.796;9.796;2023-09-08T20:20:24;20.90;99.90
6174;DHT22;3120;48.796;9.796;2023-09-08T20:22:50;22.00;99.90
6174;DHT22;3120;48.796;9.796;2023-09-08T20:25:15;22.20;99.90
6174;DHT22;3120;48.796;9.796;2023-09-08T20:27:41;20.80;99.90
6174;DHT22;3120;48.796;9.796;2023-09-08T20:30:06;20.80;99.90
6174;DHT22;3120;48.796;9.796;2023-09-08T20:32:32;20.80;99.90
6174;DHT22;3120;48.796;9.796;2023-09-08T20:34:58;20.90;99.90
6174;DHT22;3120;48.796;9.796;2023-09-08T20:37:23;20.50;99.90
6174;DHT22;3120;48.796;9.796;2023-09-08T20:39:48;21.20;99.90
6174;DHT22;3120;48.796;9.796;2023-09-08T20:42:14;20.70;99.90
6174;DHT22;3120;48.796;9.796;2023-09-08T21:08:43;19.80;99.90
6174;DHT22;3120;48.796;9.796;2023-09-08T21:11:08;19.70;99.90
6174;DHT22;3120;48.796;9.796;2023-09-08T21:13:34;19.90;99.90
6174;DHT22;3120;48.796;9.796;2023-09-08T21:15:59;19.40;99.90
6174;DHT22;3120;48.796;9.796;2023-09-08T21:18:25;20.10;99.90
6174;DHT22;3120;48.796;9.796;2023-09-08T21:20:50;19.70;99.90
6174;DHT22;3120;48.796;9.796;2023-09-08T21:23:16;19.50;99.90
6174;DHT22;3120;48.796;9.796;2023-09-08T21:25:42;19.80;99.90
6174;DHT22;3120;48.796;9.796;2023-09-08T21:28:08;19.60;99.90
6174;DHT22;3120;48.796;9.796;2023-09-08T21:30:33;19.30;99.90
6174;DHT22;3120;48.796;9.796;2023-09-08T21:32:59;19.40;99.90
6174;DHT22;3120;48.796;9.796;2023-09-08T21:35:24;19.30;99.90
6174;DHT22;3120;48.796;9.796;2023-09-08T21:37:51;19.30;99.90
6174;DHT22;3120;48.796;9.796;2023-09-08T21:40:17;19.10;99.90
6174;DHT22;3120;48.796;9.796;2023-09-08T21:42:42;19.20;99.90
6174;DHT22;3120;48.796;9.796;2023-09-08T21:45:08;18.80;99.90
6174;DHT22;3120;48.796;9.796;2023-09-08T21:47:33;19.00;99.90
6174;DHT22;3120;48.796;9.796;2023-09-08T21:49:59;20.10;99.90
6174;DHT22;3120;48.796;9.796;2023-09-08T21:52:25;20.20;99.90
6174;DHT22;3120;48.796;9.796;2023-09-08T21:54:50;19.30;99.90
6174;DHT22;3120;48.796;9.796;2023-09-08T21:57:16;18.60;99.90
6174;DHT22;3120;48.796;9.796;2023-09-08T21:59:41;18.70;99.90
6174;DHT22;3120;48.796;9.796;2023-09-08T22:02:07;18.30;99.90
6174;DHT22;3120;48.796;9.796;2023-09-08T22:07:08;18.40;99.90
6174;DHT22;3120;48.796;9.796;2023-09-08T22:09:33;18.40;99.90
6174;DHT22;3120;48.796;9.796;2023-09-08T22:12:00;18.30;99.90
6174;DHT22;3120;48.796;9.796;2023-09-08T22:14:26;19.00;99.90
6174;DHT22;3120;48.796;9.796;2023-09-08T22:16:51;18.40;99.90
6174;DHT22;3120;48.796;9.796;2023-09-08T22:19:17;18.50;99.90
6174;DHT22;3120;48.796;9.796;2023-09-08T22:21:42;19.20;99.90
6174;DHT22;3120;48.796;9.796;2023-09-08T22:24:12;18.80;99.90
6174;DHT22;3120;48.796;9.796;2023-09-08T22:26:38;18.50;99.90
6174;DHT22;3120;48.796;9.796;2023-09-08T22:29:03;18.40;99.90